sensor_id;sensor_type;location;lat;lon;timestamp;P1;durP1;ratioP1;P2;durP2;ratioP2
73158;SDS011;61370;48.594;10.202;2022-11-04T00:01:53;3.08;;;0.80;;
73158;SDS011;61370;48.594;10.202;2022-11-04T00:04:21;2.17;;;0.90;;
73158;SDS011;61370;48.594;10.202;2022-11-04T00:06:49;1.55;;;0.73;;
73158;SDS011;61370;48.594;10.202;2022-11-04T00:09:19;1.88;;;0.90;;
73158;SDS011;61370;48.594;10.202;2022-11-04T00:11:47;1.88;;;0.90;;
73158;SDS011;61370;48.594;10.202;2022-11-04T00:14:32;1.38;;;0.60;;
73158;SDS011;61370;48.594;10.202;2022-11-04T00:16:59;2.85;;;1.00;;
73158;SDS011;61370;48.594;10.202;2022-11-04T00:19:48;1.92;;;0.82;;
73158;SDS011;61370;48.594;10.202;2022-11-04T00:22:37;1.65;;;0.75;;
73158;SDS011;61370;48.594;10.202;2022-11-04T00:25:23;1.90;;;0.80;;
73158;SDS011;61370;48.594;10.202;2022-11-04T00:28:10;3.13;;;1.00;;
73158;SDS011;61370;48.594;10.202;2022-11-04T00:30:56;1.58;;;0.63;;
73158;SDS011;61370;48.594;10.202;2022-11-04T00:33:23;1.58;;;0.88;;
73158;SDS011;61370;48.594;10.202;2022-11-04T00:35:55;2.63;;;0.90;;
73158;SDS011;61370;48.594;10.202;2022-11-04T00:38:23;1.77;;;0.73;;
73158;SDS011;61370;48.594;10.202;2022-11-04T00:40:50;2.03;;;1.00;;
73158;SDS011;61370;48.594;10.202;2022-11-04T00:43:17;1.73;;;0.85;;
73158;SDS011;61370;48.594;10.202;2022-11-04T00:45:43;2.85;;;0.85;;
73158;SDS011;61370;48.594;10.202;2022-11-04T00:48:10;4.70;;;1.17;;
73158;SDS011;61370;48.594;10.202;2022-11-04T00:50:36;5.03;;;1.35;;
73158;SDS011;61370;48.594;10.202;2022-11-04T00:53:03;2.92;;;1.20;;
73158;SDS011;61370;48.594;10.202;2022-11-04T00:55:30;2.90;;;1.10;;
73158;SDS011;61370;48.594;10.202;2022-11-04T00:57:56;2.25;;;1.00;;
73158;SDS011;61370;48.594;10.202;2022-11-04T01:00:24;2.30;;;0.77;;
73158;SDS011;61370;48.594;10.202;2022-11-04T01:02:50;2.00;;;0.80;;
73158;SDS011;61370;48.594;10.202;2022-11-04T01:05:17;2.88;;;1.10;;
73158;SDS011;61370;48.594;10.202;2022-11-04T01:07:43;2.00;;;0.85;;
73158;SDS011;61370;48.594;10.202;2022-11-04T01:10:10;2.50;;;1.00;;
73158;SDS011;61370;48.594;10.202;2022-11-04T01:12:36;4.93;;;1.05;;
73158;SDS011;61370;48.594;10.202;2022-11-04T01:15:03;1.77;;;0.88;;
73158;SDS011;61370;48.594;10.202;2022-11-04T01:17:30;1.90;;;0.95;;
73158;SDS011;61370;48.594;10.202;2022-11-04T01:19:56;2.30;;;1.00;;
73158;SDS011;61370;48.594;10.202;2022-11-04T01:22:22;3.47;;;1.48;;
73158;SDS011;61370;48.594;10.202;2022-11-04T01:24:49;1.77;;;0.90;;
73158;SDS011;61370;48.594;10.202;2022-11-04T01:27:15;2.42;;;1.02;;
73158;SDS011;61370;48.594;10.202;2022-11-04T01:29:42;2.90;;;1.05;;
73158;SDS011;61370;48.594;10.202;2022-11-04T01:32:08;3.03;;;1.00;;
73158;SDS011;61370;48.594;10.202;2022-11-04T01:34:35;2.17;;;1.00;;
73158;SDS011;61370;48.594;10.202;2022-11-04T01:37:01;5.68;;;1.48;;
73158;SDS011;61370;48.594;10.202;2022-11-04T01:39:28;4.35;;;1.60;;
73158;SDS011;61370;48.594;10.202;2022-11-04T01:41:54;3.80;;;1.45;;
73158;SDS011;61370;48.594;10.202;2022-11-04T01:47:10;4.30;;;1.90;;
73158;SDS011;61370;48.594;10.202;2022-11-04T01:49:40;5.32;;;1.80;;
73158;SDS011;61370;48.594;10.202;2022-11-04T01:52:08;5.53;;;2.10;;
73158;SDS011;61370;48.594;10.202;2022-11-04T01:54:38;4.78;;;1.90;;
73158;SDS011;61370;48.594;10.202;2022-11-04T01:57:07;6.00;;;2.83;;
73158;SDS011;61370;48.594;10.202;2022-11-04T01:59:36;5.78;;;2.50;;
73158;SDS011;61370;48.594;10.202;2022-11-04T02:02:04;4.43;;;1.90;;
73158;SDS011;61370;48.594;10.202;2022-11-04T02:04:30;5.72;;;2.47;;
73158;SDS011;61370;48.594;10.202;2022-11-04T02:06:58;5.63;;;2.58;;
73158;SDS011;61370;48.594;10.202;2022-11-04T02:09:26;6.93;;;2.70;;
73158;SDS011;61370;48.594;10.202;2022-11-04T02:11:54;6.13;;;2.92;;
73158;SDS011;61370;48.594;10.202;2022-11-04T02:14:39;5.57;;;2.63;;
73158;SDS011;61370;48.594;10.202;2022-11-04T02:20:02;6.80;;;3.35;;
73158;SDS011;61370;48.594;10.202;2022-11-04T02:36:30;5.78;;;2.85;;
73158;SDS011;61370;48.594;10.202;2022-11-04T02:39:03;5.95;;;2.90;;
73158;SDS011;61370;48.594;10.202;2022-11-04T02:41:41;6.68;;;2.83;;
73158;SDS011;61370;48.594;10.202;2022-11-04T02:46:57;4.82;;;2.63;;
73158;SDS011;61370;48.594;10.202;2022-11-04T02:49:31;4.90;;;2.33;;
73158;SDS011;61370;48.594;10.202;2022-11-04T02:52:09;6.35;;;2.78;;
73158;SDS011;61370;48.594;10.202;2022-11-04T02:54:47;5.32;;;2.90;;
73158;SDS011;61370;48.594;10.202;2022-11-04T02:57:18;5.45;;;2.30;;
73158;SDS011;61370;48.594;10.202;2022-11-04T03:00:02;5.85;;;2.35;;
73158;SDS011;61370;48.594;10.202;2022-11-04T03:07:45;3.67;;;1.80;;
73158;SDS011;61370;48.594;10.202;2022-11-04T03:10:15;4.40;;;2.00;;
73158;SDS011;61370;48.594;10.202;2022-11-04T03:12:48;5.10;;;2.50;;
73158;SDS011;61370;48.594;10.202;2022-11-04T03:15:38;5.57;;;2.30;;
73158;SDS011;61370;48.594;10.202;2022-11-04T03:18:27;5.78;;;2.30;;
73158;SDS011;61370;48.594;10.202;2022-11-04T03:20:56;5.65;;;2.80;;
73158;SDS011;61370;48.594;10.202;2022-11-04T03:23:25;5.60;;;1.92;;
73158;SDS011;61370;48.594;10.202;2022-11-04T03:25:52;6.50;;;2.28;;
73158;SDS011;61370;48.594;10.202;2022-11-04T03:28:26;3.63;;;0.90;;
73158;SDS011;61370;48.594;10.202;2022-11-04T03:31:01;1.02;;;0.60;;
73158;SDS011;61370;48.594;10.202;2022-11-04T03:33:34;1.80;;;0.77;;
73158;SDS011;61370;48.594;10.202;2022-11-04T03:36:03;2.53;;;1.00;;
73158;SDS011;61370;48.594;10.202;2022-11-04T03:38:31;1.98;;;0.80;;
73158;SDS011;61370;48.594;10.202;2022-11-04T03:40:57;2.40;;;0.75;;
73158;SDS011;61370;48.594;10.202;2022-11-04T03:43:25;1.40;;;0.60;;
73158;SDS011;61370;48.594;10.202;2022-11-04T03:45:53;1.52;;;0.70;;
73158;SDS011;61370;48.594;10.202;2022-11-04T03:48:20;1.63;;;0.60;;
73158;SDS011;61370;48.594;10.202;2022-11-04T03:50:47;1.55;;;0.70;;
73158;SDS011;61370;48.594;10.202;2022-11-04T03:53:15;4.18;;;0.75;;
73158;SDS011;61370;48.594;10.202;2022-11-04T04:03:54;1.77;;;0.80;;
73158;SDS011;61370;48.594;10.202;2022-11-04T04:06:26;1.63;;;0.70;;
73158;SDS011;61370;48.594;10.202;2022-11-04T04:08:56;1.42;;;0.75;;
73158;SDS011;61370;48.594;10.202;2022-11-04T04:13:54;1.90;;;0.63;;
73158;SDS011;61370;48.594;10.202;2022-11-04T04:16:40;3.50;;;1.02;;
73158;SDS011;61370;48.594;10.202;2022-11-04T04:19:18;1.20;;;0.70;;
73158;SDS011;61370;48.594;10.202;2022-11-04T04:21:57;1.42;;;0.70;;
73158;SDS011;61370;48.594;10.202;2022-11-04T04:24:29;1.55;;;0.60;;
73158;SDS011;61370;48.594;10.202;2022-11-04T04:27:17;2.50;;;0.82;;
73158;SDS011;61370;48.594;10.202;2022-11-04T04:29:57;3.10;;;0.70;;
73158;SDS011;61370;48.594;10.202;2022-11-04T04:32:26;1.40;;;0.60;;
73158;SDS011;61370;48.594;10.202;2022-11-04T04:34:53;0.95;;;0.60;;
73158;SDS011;61370;48.594;10.202;2022-11-04T04:37:39;3.10;;;0.60;;
73158;SDS011;61370;48.594;10.202;2022-11-04T04:40:07;1.00;;;0.50;;
73158;SDS011;61370;48.594;10.202;2022-11-04T04:42:54;1.27;;;0.70;;
73158;SDS011;61370;48.594;10.202;2022-11-04T04:45:40;0.90;;;0.70;;
73158;SDS011;61370;48.594;10.202;2022-11-04T04:48:08;2.08;;;0.88;;
73158;SDS011;61370;48.594;10.202;2022-11-04T04:50:38;1.23;;;0.68;;
73158;SDS011;61370;48.594;10.202;2022-11-04T04:53:06;1.52;;;0.70;;
73158;SDS011;61370;48.594;10.202;2022-11-04T04:55:33;1.70;;;0.70;;
73158;SDS011;61370;48.594;10.202;2022-11-04T04:57:59;2.20;;;0.60;;
73158;SDS011;61370;48.594;10.202;2022-11-04T05:00:25;2.85;;;0.80;;
73158;SDS011;61370;48.594;10.202;2022-11-04T05:02:52;1.13;;;0.65;;
73158;SDS011;61370;48.594;10.202;2022-11-04T05:05:18;3.72;;;0.70;;
73158;SDS011;61370;48.594;10.202;2022-11-04T05:07:45;1.35;;;0.70;;
73158;SDS011;61370;48.594;10.202;2022-11-04T05:10:12;1.42;;;0.70;;
73158;SDS011;61370;48.594;10.202;2022-11-04T05:12:40;3.92;;;1.77;;
73158;SDS011;61370;48.594;10.202;2022-11-04T05:15:42;10.07;;;3.97;;
73158;SDS011;61370;48.594;10.202;2022-11-04T05:18:08;7.18;;;3.90;;
73158;SDS011;61370;48.594;10.202;2022-11-04T05:20:35;4.82;;;1.73;;
73158;SDS011;61370;48.594;10.202;2022-11-04T05:23:03;3.70;;;1.25;;
73158;SDS011;61370;48.594;10.202;2022-11-04T05:25:29;1.38;;;0.77;;
73158;SDS011;61370;48.594;10.202;2022-11-04T05:27:59;12.60;;;4.25;;
73158;SDS011;61370;48.594;10.202;2022-11-04T05:30:27;15.52;;;5.50;;
73158;SDS011;61370;48.594;10.202;2022-11-04T05:32:53;9.13;;;4.20;;
73158;SDS011;61370;48.594;10.202;2022-11-04T05:35:20;7.60;;;3.20;;
73158;SDS011;61370;48.594;10.202;2022-11-04T05:37:46;5.88;;;1.70;;
73158;SDS011;61370;48.594;10.202;2022-11-04T05:40:13;2.65;;;1.05;;
73158;SDS011;61370;48.594;10.202;2022-11-04T05:42:39;2.03;;;0.80;;
73158;SDS011;61370;48.594;10.202;2022-11-04T05:45:06;6.22;;;1.65;;
73158;SDS011;61370;48.594;10.202;2022-11-04T05:47:33;4.05;;;1.50;;
73158;SDS011;61370;48.594;10.202;2022-11-04T05:49:59;4.90;;;1.25;;
73158;SDS011;61370;48.594;10.202;2022-11-04T05:52:26;3.00;;;1.25;;
73158;SDS011;61370;48.594;10.202;2022-11-04T05:54:52;3.50;;;1.10;;
73158;SDS011;61370;48.594;10.202;2022-11-04T05:57:18;3.25;;;1.20;;
73158;SDS011;61370;48.594;10.202;2022-11-04T05:59:45;4.22;;;1.33;;
73158;SDS011;61370;48.594;10.202;2022-11-04T06:02:11;3.47;;;1.35;;
73158;SDS011;61370;48.594;10.202;2022-11-04T06:04:38;2.40;;;1.08;;
73158;SDS011;61370;48.594;10.202;2022-11-04T06:07:04;4.03;;;1.10;;
73158;SDS011;61370;48.594;10.202;2022-11-04T06:09:31;4.05;;;1.10;;
73158;SDS011;61370;48.594;10.202;2022-11-04T06:12:22;1.75;;;0.95;;
73158;SDS011;61370;48.594;10.202;2022-11-04T06:14:48;1.17;;;0.75;;
73158;SDS011;61370;48.594;10.202;2022-11-04T06:17:19;2.42;;;0.60;;
73158;SDS011;61370;48.594;10.202;2022-11-04T06:19:47;3.25;;;1.05;;
73158;SDS011;61370;48.594;10.202;2022-11-04T06:22:14;1.75;;;0.85;;
73158;SDS011;61370;48.594;10.202;2022-11-04T06:24:42;2.70;;;0.70;;
73158;SDS011;61370;48.594;10.202;2022-11-04T06:27:09;2.72;;;0.80;;
73158;SDS011;61370;48.594;10.202;2022-11-04T06:29:35;2.70;;;0.90;;
73158;SDS011;61370;48.594;10.202;2022-11-04T06:32:06;1.17;;;0.70;;
73158;SDS011;61370;48.594;10.202;2022-11-04T06:34:34;2.78;;;0.80;;
73158;SDS011;61370;48.594;10.202;2022-11-04T06:37:01;6.70;;;1.25;;
73158;SDS011;61370;48.594;10.202;2022-11-04T06:39:28;2.35;;;1.00;;
73158;SDS011;61370;48.594;10.202;2022-11-04T06:41:54;3.65;;;1.10;;
73158;SDS011;61370;48.594;10.202;2022-11-04T06:47:13;2.50;;;1.35;;
73158;SDS011;61370;48.594;10.202;2022-11-04T06:49:40;3.03;;;1.55;;
73158;SDS011;61370;48.594;10.202;2022-11-04T06:52:07;4.18;;;1.50;;
73158;SDS011;61370;48.594;10.202;2022-11-04T06:54:36;2.85;;;1.30;;
73158;SDS011;61370;48.594;10.202;2022-11-04T06:57:08;4.03;;;2.20;;
73158;SDS011;61370;48.594;10.202;2022-11-04T06:59:38;4.55;;;2.05;;
73158;SDS011;61370;48.594;10.202;2022-11-04T07:02:05;4.43;;;1.77;;
73158;SDS011;61370;48.594;10.202;2022-11-04T07:04:36;3.85;;;1.63;;
73158;SDS011;61370;48.594;10.202;2022-11-04T07:07:09;3.22;;;1.80;;
73158;SDS011;61370;48.594;10.202;2022-11-04T07:09:54;3.30;;;1.63;;
73158;SDS011;61370;48.594;10.202;2022-11-04T07:12:22;2.88;;;1.60;;
73158;SDS011;61370;48.594;10.202;2022-11-04T07:14:50;3.60;;;1.42;;
73158;SDS011;61370;48.594;10.202;2022-11-04T07:17:19;4.97;;;1.38;;
73158;SDS011;61370;48.594;10.202;2022-11-04T07:19:46;3.50;;;1.70;;
73158;SDS011;61370;48.594;10.202;2022-11-04T07:22:12;5.65;;;2.67;;
73158;SDS011;61370;48.594;10.202;2022-11-04T07:24:39;7.25;;;3.17;;
73158;SDS011;61370;48.594;10.202;2022-11-04T07:27:05;7.63;;;3.53;;
73158;SDS011;61370;48.594;10.202;2022-11-04T07:29:34;8.00;;;3.00;;
73158;SDS011;61370;48.594;10.202;2022-11-04T07:32:00;6.00;;;2.75;;
73158;SDS011;61370;48.594;10.202;2022-11-04T07:34:29;6.35;;;2.58;;
73158;SDS011;61370;48.594;10.202;2022-11-04T07:36:55;5.93;;;2.67;;
73158;SDS011;61370;48.594;10.202;2022-11-04T07:39:22;7.85;;;2.72;;
73158;SDS011;61370;48.594;10.202;2022-11-04T07:41:48;5.57;;;2.40;;
73158;SDS011;61370;48.594;10.202;2022-11-04T07:44:15;6.95;;;3.33;;
73158;SDS011;61370;48.594;10.202;2022-11-04T07:46:41;8.57;;;4.43;;
73158;SDS011;61370;48.594;10.202;2022-11-04T07:49:08;7.60;;;3.50;;
73158;SDS011;61370;48.594;10.202;2022-11-04T07:51:35;5.50;;;3.30;;
73158;SDS011;61370;48.594;10.202;2022-11-04T07:54:01;7.57;;;3.58;;
73158;SDS011;61370;48.594;10.202;2022-11-04T07:56:28;8.20;;;4.28;;
73158;SDS011;61370;48.594;10.202;2022-11-04T07:58:55;8.57;;;4.82;;
73158;SDS011;61370;48.594;10.202;2022-11-04T08:01:22;5.38;;;3.28;;
73158;SDS011;61370;48.594;10.202;2022-11-04T08:03:49;8.98;;;3.33;;
73158;SDS011;61370;48.594;10.202;2022-11-04T08:06:17;6.50;;;3.08;;
73158;SDS011;61370;48.594;10.202;2022-11-04T08:08:49;10.10;;;3.75;;
73158;SDS011;61370;48.594;10.202;2022-11-04T08:11:20;11.82;;;5.82;;
73158;SDS011;61370;48.594;10.202;2022-11-04T08:13:50;13.30;;;6.20;;
73158;SDS011;61370;48.594;10.202;2022-11-04T08:16:17;10.38;;;5.32;;
73158;SDS011;61370;48.594;10.202;2022-11-04T08:18:45;9.93;;;4.57;;
73158;SDS011;61370;48.594;10.202;2022-11-04T08:21:13;9.27;;;4.20;;
73158;SDS011;61370;48.594;10.202;2022-11-04T08:23:41;6.55;;;3.03;;
73158;SDS011;61370;48.594;10.202;2022-11-04T08:26:08;4.57;;;1.88;;
73158;SDS011;61370;48.594;10.202;2022-11-04T08:28:36;3.90;;;1.90;;
73158;SDS011;61370;48.594;10.202;2022-11-04T08:31:04;5.40;;;2.72;;
73158;SDS011;61370;48.594;10.202;2022-11-04T08:33:31;5.15;;;2.50;;
73158;SDS011;61370;48.594;10.202;2022-11-04T08:35:59;7.57;;;3.50;;
73158;SDS011;61370;48.594;10.202;2022-11-04T08:38:27;5.43;;;2.55;;
73158;SDS011;61370;48.594;10.202;2022-11-04T08:43:10;5.15;;;2.53;;
73158;SDS011;61370;48.594;10.202;2022-11-04T08:45:41;7.28;;;2.47;;
73158;SDS011;61370;48.594;10.202;2022-11-04T08:48:08;7.40;;;2.60;;
73158;SDS011;61370;48.594;10.202;2022-11-04T08:57:54;6.78;;;3.00;;
73158;SDS011;61370;48.594;10.202;2022-11-04T09:00:21;6.88;;;2.75;;
73158;SDS011;61370;48.594;10.202;2022-11-04T09:02:48;5.53;;;2.63;;
73158;SDS011;61370;48.594;10.202;2022-11-04T09:05:15;6.55;;;2.75;;
73158;SDS011;61370;48.594;10.202;2022-11-04T09:07:42;4.85;;;2.70;;
73158;SDS011;61370;48.594;10.202;2022-11-04T09:10:09;7.72;;;2.40;;
73158;SDS011;61370;48.594;10.202;2022-11-04T09:12:36;5.78;;;2.92;;
73158;SDS011;61370;48.594;10.202;2022-11-04T09:15:06;8.45;;;3.60;;
73158;SDS011;61370;48.594;10.202;2022-11-04T09:17:32;7.53;;;4.13;;
73158;SDS011;61370;48.594;10.202;2022-11-04T09:19:59;8.38;;;3.47;;
73158;SDS011;61370;48.594;10.202;2022-11-04T09:22:25;5.60;;;2.85;;
73158;SDS011;61370;48.594;10.202;2022-11-04T09:24:52;7.15;;;3.60;;
73158;SDS011;61370;48.594;10.202;2022-11-04T09:27:18;6.85;;;3.45;;
73158;SDS011;61370;48.594;10.202;2022-11-04T09:29:45;9.27;;;3.55;;
73158;SDS011;61370;48.594;10.202;2022-11-04T09:32:11;7.63;;;4.15;;
73158;SDS011;61370;48.594;10.202;2022-11-04T09:34:38;9.73;;;3.75;;
73158;SDS011;61370;48.594;10.202;2022-11-04T09:37:04;5.90;;;3.15;;
73158;SDS011;61370;48.594;10.202;2022-11-04T09:39:31;5.85;;;3.13;;
73158;SDS011;61370;48.594;10.202;2022-11-04T09:42:06;5.57;;;3.28;;
73158;SDS011;61370;48.594;10.202;2022-11-04T09:44:49;5.78;;;2.83;;
73158;SDS011;61370;48.594;10.202;2022-11-04T09:47:16;6.32;;;3.20;;
73158;SDS011;61370;48.594;10.202;2022-11-04T09:49:45;5.38;;;2.83;;
73158;SDS011;61370;48.594;10.202;2022-11-04T09:52:25;5.60;;;3.00;;
73158;SDS011;61370;48.594;10.202;2022-11-04T09:54:55;5.13;;;2.70;;
73158;SDS011;61370;48.594;10.202;2022-11-04T09:57:25;5.80;;;2.80;;
73158;SDS011;61370;48.594;10.202;2022-11-04T09:59:52;4.97;;;2.58;;
73158;SDS011;61370;48.594;10.202;2022-11-04T10:03:22;5.65;;;2.88;;
73158;SDS011;61370;48.594;10.202;2022-11-04T10:18:58;4.47;;;2.60;;
73158;SDS011;61370;48.594;10.202;2022-11-04T10:26:45;6.63;;;3.60;;
73158;SDS011;61370;48.594;10.202;2022-11-04T10:29:42;4.65;;;2.83;;
73158;SDS011;61370;48.594;10.202;2022-11-04T10:32:12;5.90;;;3.13;;
73158;SDS011;61370;48.594;10.202;2022-11-04T10:34:42;6.45;;;2.90;;
73158;SDS011;61370;48.594;10.202;2022-11-04T10:37:12;5.55;;;2.85;;
73158;SDS011;61370;48.594;10.202;2022-11-04T10:39:47;5.20;;;2.67;;
73158;SDS011;61370;48.594;10.202;2022-11-04T10:42:18;4.97;;;2.80;;
73158;SDS011;61370;48.594;10.202;2022-11-04T10:44:47;6.18;;;2.85;;
73158;SDS011;61370;48.594;10.202;2022-11-04T10:52:51;4.65;;;2.13;;
73158;SDS011;61370;48.594;10.202;2022-11-04T10:58:15;4.57;;;2.40;;
73158;SDS011;61370;48.594;10.202;2022-11-04T11:00:49;6.28;;;2.45;;
73158;SDS011;61370;48.594;10.202;2022-11-04T11:03:27;5.00;;;2.67;;
73158;SDS011;61370;48.594;10.202;2022-11-04T11:06:08;4.68;;;2.20;;
73158;SDS011;61370;48.594;10.202;2022-11-04T11:08:35;4.45;;;2.10;;
73158;SDS011;61370;48.594;10.202;2022-11-04T11:11:05;4.07;;;2.00;;
73158;SDS011;61370;48.594;10.202;2022-11-04T11:13:36;5.25;;;2.10;;
73158;SDS011;61370;48.594;10.202;2022-11-04T11:16:05;7.18;;;2.33;;
73158;SDS011;61370;48.594;10.202;2022-11-04T11:18:32;4.43;;;2.22;;
73158;SDS011;61370;48.594;10.202;2022-11-04T11:21:04;3.50;;;2.05;;
73158;SDS011;61370;48.594;10.202;2022-11-04T11:26:12;4.05;;;2.03;;
73158;SDS011;61370;48.594;10.202;2022-11-04T11:28:40;4.43;;;2.30;;
73158;SDS011;61370;48.594;10.202;2022-11-04T11:31:13;4.97;;;2.42;;
73158;SDS011;61370;48.594;10.202;2022-11-04T11:33:49;4.22;;;1.95;;
73158;SDS011;61370;48.594;10.202;2022-11-04T11:36:19;4.40;;;2.20;;
73158;SDS011;61370;48.594;10.202;2022-11-04T11:39:04;5.25;;;2.10;;
73158;SDS011;61370;48.594;10.202;2022-11-04T11:41:50;4.20;;;2.20;;
73158;SDS011;61370;48.594;10.202;2022-11-04T11:44:26;6.57;;;2.08;;
73158;SDS011;61370;48.594;10.202;2022-11-04T11:46:58;7.30;;;2.90;;
73158;SDS011;61370;48.594;10.202;2022-11-04T11:49:31;5.55;;;2.28;;
73158;SDS011;61370;48.594;10.202;2022-11-04T11:52:16;5.25;;;2.50;;
73158;SDS011;61370;48.594;10.202;2022-11-04T11:54:52;4.38;;;2.22;;
73158;SDS011;61370;48.594;10.202;2022-11-04T11:57:32;6.80;;;2.40;;
73158;SDS011;61370;48.594;10.202;2022-11-04T12:00:05;7.35;;;2.65;;
73158;SDS011;61370;48.594;10.202;2022-11-04T12:05:33;7.13;;;2.70;;
73158;SDS011;61370;48.594;10.202;2022-11-04T12:11:01;7.18;;;2.78;;
73158;SDS011;61370;48.594;10.202;2022-11-04T12:13:40;5.90;;;2.53;;
73158;SDS011;61370;48.594;10.202;2022-11-04T12:16:25;7.63;;;2.65;;
73158;SDS011;61370;48.594;10.202;2022-11-04T12:21:37;4.13;;;2.00;;
73158;SDS011;61370;48.594;10.202;2022-11-04T12:29:55;7.47;;;2.65;;
73158;SDS011;61370;48.594;10.202;2022-11-04T12:40:24;16.27;;;5.07;;
73158;SDS011;61370;48.594;10.202;2022-11-04T12:43:51;7.53;;;3.28;;
73158;SDS011;61370;48.594;10.202;2022-11-04T12:52:09;7.13;;;2.28;;
73158;SDS011;61370;48.594;10.202;2022-11-04T12:58:00;7.15;;;2.60;;
73158;SDS011;61370;48.594;10.202;2022-11-04T13:00:49;7.30;;;2.58;;
73158;SDS011;61370;48.594;10.202;2022-11-04T13:03:21;5.07;;;1.98;;
73158;SDS011;61370;48.594;10.202;2022-11-04T13:11:38;7.35;;;2.63;;
73158;SDS011;61370;48.594;10.202;2022-11-04T13:14:13;6.32;;;2.40;;
73158;SDS011;61370;48.594;10.202;2022-11-04T13:16:46;7.13;;;2.42;;
73158;SDS011;61370;48.594;10.202;2022-11-04T13:22:06;6.05;;;2.63;;
73158;SDS011;61370;48.594;10.202;2022-11-04T13:24:38;7.90;;;3.22;;
73158;SDS011;61370;48.594;10.202;2022-11-04T13:27:18;7.22;;;2.75;;
73158;SDS011;61370;48.594;10.202;2022-11-04T13:29:59;10.30;;;2.70;;
73158;SDS011;61370;48.594;10.202;2022-11-04T13:32:39;6.75;;;2.45;;
73158;SDS011;61370;48.594;10.202;2022-11-04T13:35:19;6.55;;;2.20;;
73158;SDS011;61370;48.594;10.202;2022-11-04T13:37:56;7.60;;;2.60;;
73158;SDS011;61370;48.594;10.202;2022-11-04T13:40:26;7.63;;;2.38;;
73158;SDS011;61370;48.594;10.202;2022-11-04T13:43:02;7.80;;;2.55;;
73158;SDS011;61370;48.594;10.202;2022-11-04T13:45:53;9.43;;;2.60;;
73158;SDS011;61370;48.594;10.202;2022-11-04T13:48:22;8.98;;;2.55;;
73158;SDS011;61370;48.594;10.202;2022-11-04T13:50:58;8.25;;;2.28;;
73158;SDS011;61370;48.594;10.202;2022-11-04T13:53:38;6.80;;;2.30;;
73158;SDS011;61370;48.594;10.202;2022-11-04T13:56:09;7.57;;;2.17;;
73158;SDS011;61370;48.594;10.202;2022-11-04T13:58:58;8.05;;;2.47;;
73158;SDS011;61370;48.594;10.202;2022-11-04T14:01:29;9.23;;;2.90;;
73158;SDS011;61370;48.594;10.202;2022-11-04T14:04:05;7.30;;;2.53;;
73158;SDS011;61370;48.594;10.202;2022-11-04T14:14:34;15.00;;;4.32;;
73158;SDS011;61370;48.594;10.202;2022-11-04T14:17:00;14.82;;;3.42;;
73158;SDS011;61370;48.594;10.202;2022-11-04T14:19:46;13.50;;;3.72;;
73158;SDS011;61370;48.594;10.202;2022-11-04T14:22:24;8.57;;;3.15;;
73158;SDS011;61370;48.594;10.202;2022-11-04T14:27:48;6.18;;;2.67;;
73158;SDS011;61370;48.594;10.202;2022-11-04T14:30:29;6.90;;;2.33;;
73158;SDS011;61370;48.594;10.202;2022-11-04T14:32:58;3.90;;;1.40;;
73158;SDS011;61370;48.594;10.202;2022-11-04T14:35:28;4.28;;;1.63;;
73158;SDS011;61370;48.594;10.202;2022-11-04T14:37:55;5.47;;;1.75;;
73158;SDS011;61370;48.594;10.202;2022-11-04T14:40:27;6.10;;;2.05;;
73158;SDS011;61370;48.594;10.202;2022-11-04T14:43:16;6.88;;;1.83;;
73158;SDS011;61370;48.594;10.202;2022-11-04T14:45:46;5.13;;;1.65;;
73158;SDS011;61370;48.594;10.202;2022-11-04T14:48:14;5.25;;;1.92;;
73158;SDS011;61370;48.594;10.202;2022-11-04T14:50:45;7.55;;;1.90;;
73158;SDS011;61370;48.594;10.202;2022-11-04T14:53:18;5.97;;;1.90;;
73158;SDS011;61370;48.594;10.202;2022-11-04T14:56:01;7.93;;;2.05;;
73158;SDS011;61370;48.594;10.202;2022-11-04T14:58:29;5.18;;;1.80;;
73158;SDS011;61370;48.594;10.202;2022-11-04T15:01:00;5.88;;;1.52;;
73158;SDS011;61370;48.594;10.202;2022-11-04T15:03:29;5.25;;;2.05;;
73158;SDS011;61370;48.594;10.202;2022-11-04T15:06:01;6.38;;;2.00;;
73158;SDS011;61370;48.594;10.202;2022-11-04T15:08:34;7.93;;;3.00;;
73158;SDS011;61370;48.594;10.202;2022-11-04T15:13:38;7.07;;;2.35;;
73158;SDS011;61370;48.594;10.202;2022-11-04T15:16:12;9.05;;;2.30;;
73158;SDS011;61370;48.594;10.202;2022-11-04T15:18:41;7.68;;;2.22;;
73158;SDS011;61370;48.594;10.202;2022-11-04T15:21:08;5.95;;;2.72;;
73158;SDS011;61370;48.594;10.202;2022-11-04T15:23:38;11.90;;;3.33;;
73158;SDS011;61370;48.594;10.202;2022-11-04T15:26:13;9.57;;;5.00;;
73158;SDS011;61370;48.594;10.202;2022-11-04T15:28:44;9.38;;;5.38;;
73158;SDS011;61370;48.594;10.202;2022-11-04T15:31:14;8.30;;;4.22;;
73158;SDS011;61370;48.594;10.202;2022-11-04T15:33:52;8.75;;;3.60;;
73158;SDS011;61370;48.594;10.202;2022-11-04T15:36:20;7.30;;;2.42;;
73158;SDS011;61370;48.594;10.202;2022-11-04T15:39:00;5.13;;;2.00;;
73158;SDS011;61370;48.594;10.202;2022-11-04T15:41:32;7.05;;;2.22;;
73158;SDS011;61370;48.594;10.202;2022-11-04T15:44:43;9.90;;;2.55;;
73158;SDS011;61370;48.594;10.202;2022-11-04T15:49:43;8.38;;;3.58;;
73158;SDS011;61370;48.594;10.202;2022-11-04T15:52:13;13.15;;;4.85;;
73158;SDS011;61370;48.594;10.202;2022-11-04T15:54:56;11.18;;;3.97;;
73158;SDS011;61370;48.594;10.202;2022-11-04T15:57:27;8.55;;;3.88;;
73158;SDS011;61370;48.594;10.202;2022-11-04T16:02:49;10.70;;;5.03;;
73158;SDS011;61370;48.594;10.202;2022-11-04T16:07:45;7.95;;;3.10;;
73158;SDS011;61370;48.594;10.202;2022-11-04T16:10:23;5.00;;;2.47;;
73158;SDS011;61370;48.594;10.202;2022-11-04T16:12:58;6.28;;;2.28;;
73158;SDS011;61370;48.594;10.202;2022-11-04T16:18:25;5.15;;;2.28;;
73158;SDS011;61370;48.594;10.202;2022-11-04T16:21:23;6.10;;;2.60;;
73158;SDS011;61370;48.594;10.202;2022-11-04T16:23:49;7.43;;;2.53;;
73158;SDS011;61370;48.594;10.202;2022-11-04T16:26:22;7.00;;;2.67;;
73158;SDS011;61370;48.594;10.202;2022-11-04T16:28:54;8.32;;;2.42;;
73158;SDS011;61370;48.594;10.202;2022-11-04T16:31:39;10.70;;;2.45;;
73158;SDS011;61370;48.594;10.202;2022-11-04T16:34:08;7.43;;;2.17;;
73158;SDS011;61370;48.594;10.202;2022-11-04T16:36:36;6.72;;;2.50;;
73158;SDS011;61370;48.594;10.202;2022-11-04T16:39:03;6.20;;;2.40;;
73158;SDS011;61370;48.594;10.202;2022-11-04T16:41:38;5.53;;;2.22;;
73158;SDS011;61370;48.594;10.202;2022-11-04T16:44:08;6.07;;;2.05;;
73158;SDS011;61370;48.594;10.202;2022-11-04T16:46:41;6.05;;;2.20;;
73158;SDS011;61370;48.594;10.202;2022-11-04T16:49:08;5.07;;;1.90;;
73158;SDS011;61370;48.594;10.202;2022-11-04T16:51:35;4.60;;;2.25;;
73158;SDS011;61370;48.594;10.202;2022-11-04T16:54:02;4.47;;;2.42;;
73158;SDS011;61370;48.594;10.202;2022-11-04T16:56:28;7.50;;;2.95;;
73158;SDS011;61370;48.594;10.202;2022-11-04T16:58:55;7.18;;;2.78;;
73158;SDS011;61370;48.594;10.202;2022-11-04T17:01:21;9.40;;;4.00;;
73158;SDS011;61370;48.594;10.202;2022-11-04T17:03:48;6.75;;;3.25;;
73158;SDS011;61370;48.594;10.202;2022-11-04T17:06:16;7.38;;;3.30;;
73158;SDS011;61370;48.594;10.202;2022-11-04T17:08:43;6.38;;;3.22;;
73158;SDS011;61370;48.594;10.202;2022-11-04T17:11:09;14.25;;;5.13;;
73158;SDS011;61370;48.594;10.202;2022-11-04T17:13:36;23.95;;;6.57;;
73158;SDS011;61370;48.594;10.202;2022-11-04T17:16:04;9.95;;;4.50;;
73158;SDS011;61370;48.594;10.202;2022-11-04T17:18:32;7.13;;;3.30;;
73158;SDS011;61370;48.594;10.202;2022-11-04T17:21:00;7.63;;;2.88;;
73158;SDS011;61370;48.594;10.202;2022-11-04T17:23:30;9.70;;;3.33;;